Chinggis Khaan International Airport (ULN/ZMUB)




Flight Aircraft Arriving
CPX779 B763
RKSI - Incheon International Airport
Republic Of Korea Seoul, Republic Of Korea
Flight Aircraft Departing
CPX778 B763
RKSI - Incheon International Airport
Republic Of Korea Seoul, Republic Of Korea
Airport Information
Location: Ulan Bator, MN
Coordinates: 47.8431 / 106.767
Elevation:
Time Offset:
Local Time:
UTC Time:
Jet A Price: $/lbs

Current Weather
METAR: ZMUB 271000Z 30005MPS CAVOK M14/M22 Q1018 NOSIG RMK QFE656.0 56
TAF: TAF ZMUB 270444Z 2706/2812 34007MPS 9999 SCT100 TXM12/2706Z TNM24/2723Z BECMG 2710/2712 VRB02MPS

Recent Arrivals
Date Flight Type Depart
Recent Departures
Date Flight Type Arrive